Time;durP1;ratioP1;P1;durP2;ratioP2;P2;SDS_P1;SDS_P2;PMS_P1;PMS_P2;Temp;Humidity;BMP_temperature;BMP_pressure;BME280_temperature;BME280_humidity;BME280_pressure;Samples;Min_cycle;Max_cycle;Signal;HPM_P1;HPM_P2
2023/07/16 00:00:51;;;;;;;298.35;285.92;;;18.80;99.90;;;;;;5102766;28;20038;-75
2023/07/16 00:03:16;;;;;;;292.92;280.23;;;18.90;99.90;;;;;;5105976;28;20489;-75
2023/07/16 00:05:42;;;;;;;289.88;275.92;;;18.80;99.90;;;;;;5104589;28;20040;-75
2023/07/16 00:08:08;;;;;;;312.75;298.60;;;18.70;99.90;;;;;;5075018;28;20347;-76
2023/07/16 00:10:35;;;;;;;319.77;306.08;;;18.60;99.90;;;;;;5085118;28;20032;-75
2023/07/16 00:13:01;;;;;;;303.92;291.75;;;18.60;99.90;;;;;;5084747;28;20571;-76
2023/07/16 00:15:27;;;;;;;303.40;291.65;;;18.50;99.90;;;;;;5091072;28;20034;-76
2023/07/16 00:17:54;;;;;;;241.48;232.43;;;18.30;99.90;;;;;;5088911;28;20031;-75
2023/07/16 00:20:20;;;;;;;303.92;291.58;;;18.20;99.90;;;;;;5090611;28;20040;-75
2023/07/16 00:22:46;;;;;;;315.48;302.95;;;18.20;99.90;;;;;;5101539;28;20505;-75
2023/07/16 00:25:12;;;;;;;311.15;298.55;;;18.40;99.90;;;;;;5106649;28;20047;-75
2023/07/16 00:27:38;;;;;;;310.38;297.75;;;18.50;99.90;;;;;;5103950;28;20036;-75
2023/07/16 00:30:04;;;;;;;298.67;286.75;;;18.30;99.90;;;;;;5101846;28;20035;-75
2023/07/16 00:32:30;;;;;;;318.88;305.88;;;18.10;99.90;;;;;;5088349;28;20393;-76
2023/07/16 00:34:56;;;;;;;301.85;290.05;;;18.20;99.90;;;;;;5105438;28;20038;-75
2023/07/16 00:37:21;;;;;;;321.30;308.48;;;18.40;99.90;;;;;;5101993;28;20166;-75
2023/07/16 00:39:47;;;;;;;266.45;255.85;;;18.40;99.90;;;;;;5102397;28;20106;-75
2023/07/16 00:42:13;;;;;;;306.27;294.08;;;18.40;99.90;;;;;;5104536;28;20043;-75
2023/07/16 00:44:38;;;;;;;307.40;295.42;;;18.30;99.90;;;;;;5112543;28;20035;-76
2023/07/16 00:47:04;;;;;;;288.67;276.83;;;18.20;99.90;;;;;;5106912;28;20443;-75
2023/07/16 00:49:31;;;;;;;299.33;287.60;;;18.30;99.90;;;;;;5110716;28;20547;-75
2023/07/16 00:51:59;;;;;;;319.23;306.65;;;18.50;99.90;;;;;;5090120;28;20058;-75
2023/07/16 00:54:25;;;;;;;287.58;276.23;;;18.40;99.90;;;;;;5111311;28;20038;-75
2023/07/16 00:56:50;;;;;;;297.92;286.08;;;18.60;99.90;;;;;;5106550;28;20027;-75
2023/07/16 00:59:16;;;;;;;286.52;275.20;;;18.50;99.90;;;;;;5106742;28;20027;-75
2023/07/16 01:01:42;;;;;;;284.85;273.67;;;18.60;99.90;;;;;;5109404;28;20016;-75
2023/07/16 01:04:08;;;;;;;272.13;261.13;;;18.40;99.90;;;;;;5107186;28;20063;-76
2023/07/16 01:06:39;;;;;;;305.02;292.30;;;18.40;99.90;;;;;;5104689;28;20059;-76
2023/07/16 01:09:17;;;;;;;300.83;288.40;;;18.70;99.90;;;;;;5109317;28;20027;-75
2023/07/16 01:11:44;;;;;;;276.85;265.92;;;18.30;99.90;;;;;;5109676;28;20097;-75
2023/07/16 01:14:12;;;;;;;306.88;294.38;;;18.20;99.90;;;;;;5105074;28;20058;-76
2023/07/16 01:16:37;;;;;;;282.42;271.60;;;18.30;99.90;;;;;;5108124;28;20034;-76
2023/07/16 01:19:04;;;;;;;290.05;278.48;;;18.40;99.90;;;;;;5110535;28;20396;-76
2023/07/16 01:22:02;;;;;;;300.45;288.60;;;18.40;99.90;;;;;;5106572;27;20023;-76
2023/07/16 01:24:51;;;;;;;289.42;278.15;;;18.40;99.90;;;;;;5105484;28;20027;-76
2023/07/16 01:27:34;;;;;;;239.02;229.30;;;18.40;99.90;;;;;;5057308;28;20027;-76
2023/07/16 01:30:05;;;;;;;173.85;166.60;;;18.40;99.90;;;;;;5108037;28;20024;-75
2023/07/16 01:32:31;;;;;;;278.48;262.67;;;18.60;99.90;;;;;;5087110;28;20119;-76
2023/07/16 01:34:58;;;;;;;168.20;160.35;;;18.70;99.90;;;;;;5107481;28;20026;-77
2023/07/16 01:37:24;;;;;;;214.10;206.15;;;18.10;99.90;;;;;;5108119;28;20051;-76
2023/07/16 01:39:50;;;;;;;276.77;265.92;;;18.50;99.90;;;;;;5089618;28;20035;-76
2023/07/16 01:42:15;;;;;;;274.30;263.73;;;18.30;99.90;;;;;;5111153;28;20540;-77
2023/07/16 01:44:41;;;;;;;279.52;268.60;;;18.20;99.90;;;;;;5106474;28;20042;-76
2023/07/16 01:47:11;;;;;;;108.10;103.40;;;18.50;99.90;;;;;;5110027;28;20051;-75
2023/07/16 01:49:36;;;;;;;121.73;117.17;;;18.40;99.90;;;;;;5106458;28;20039;-76
2023/07/16 01:52:03;;;;;;;63.60;60.97;;;18.00;99.90;;;;;;5106834;28;20027;-75
2023/07/16 01:54:29;;;;;;;99.88;96.20;;;17.80;99.90;;;;;;5106738;28;20039;-75
2023/07/16 01:56:55;;;;;;;97.95;93.72;;;17.60;99.90;;;;;;5107068;28;20035;-76
2023/07/16 01:59:21;;;;;;;75.68;72.60;;;17.50;99.90;;;;;;5106999;28;20063;-75
2023/07/16 02:01:46;;;;;;;122.57;117.78;;;17.50;99.90;;;;;;5108608;28;20059;-76
2023/07/16 02:04:12;;;;;;;84.85;81.47;;;17.50;99.90;;;;;;5108558;28;20063;-75
2023/07/16 02:06:37;;;;;;;118.80;113.90;;;17.60;99.90;;;;;;5110206;27;20494;-75
2023/07/16 02:09:03;;;;;;;210.38;202.55;;;17.70;99.90;;;;;;5091849;28;20509;-76
2023/07/16 02:11:29;;;;;;;107.22;102.72;;;18.00;99.90;;;;;;5089833;28;20403;-75
2023/07/16 02:13:55;;;;;;;123.15;118.47;;;17.50;99.90;;;;;;5103378;28;20028;-75
2023/07/16 02:16:20;;;;;;;86.43;82.97;;;17.60;99.90;;;;;;5105118;28;20031;-74
2023/07/16 02:18:46;;;;;;;72.90;70.00;;;17.50;99.90;;;;;;5109429;28;20424;-76
2023/07/16 02:21:12;;;;;;;85.32;81.97;;;17.40;99.90;;;;;;5106759;27;20033;-75
2023/07/16 02:23:37;;;;;;;87.18;83.00;;;17.60;99.90;;;;;;5089188;28;20070;-75
2023/07/16 02:26:03;;;;;;;79.32;76.10;;;17.20;99.90;;;;;;5104043;28;20028;-75
2023/07/16 02:28:28;;;;;;;83.10;79.75;;;17.30;99.90;;;;;;5104776;28;20055;-75
2023/07/16 02:30:54;;;;;;;89.18;85.72;;;17.30;99.90;;;;;;5089700;28;20088;-75
2023/07/16 02:33:20;;;;;;;79.85;76.70;;;17.20;99.90;;;;;;5109825;28;20024;-75
2023/07/16 02:35:47;;;;;;;75.90;72.80;;;17.40;99.90;;;;;;5109066;28;20039;-75
2023/07/16 02:38:13;;;;;;;88.93;85.03;;;17.30;99.90;;;;;;5110350;28;20056;-75
2023/07/16 02:40:46;;;;;;;82.88;79.50;;;17.30;99.90;;;;;;5107202;28;20038;-75
2023/07/16 02:43:12;;;;;;;87.57;83.65;;;17.20;99.90;;;;;;5104804;28;20071;-75
2023/07/16 02:45:38;;;;;;;93.05;89.32;;;17.00;99.90;;;;;;5108415;28;20520;-75
2023/07/16 02:48:05;;;;;;;95.57;92.00;;;17.00;99.90;;;;;;5102258;28;20107;-75
2023/07/16 02:50:37;;;;;;;78.97;75.18;;;17.00;99.90;;;;;;5106294;28;20035;-75
2023/07/16 02:53:07;;;;;;;88.20;84.45;;;17.20;99.90;;;;;;5103211;28;20019;-75
2023/07/16 02:55:33;;;;;;;101.93;97.87;;;17.20;99.90;;;;;;5104777;28;20123;-75
2023/07/16 02:57:58;;;;;;;113.47;109.30;;;17.00;99.90;;;;;;5106381;28;20059;-76
2023/07/16 03:00:24;;;;;;;95.40;91.22;;;17.70;99.90;;;;;;5105471;28;20082;-75
2023/07/16 03:02:50;;;;;;;78.65;75.45;;;17.50;99.90;;;;;;5070426;28;20114;-75
2023/07/16 03:05:16;;;;;;;92.07;88.55;;;17.50;99.90;;;;;;5106439;28;20044;-75
2023/07/16 03:07:42;;;;;;;82.97;79.57;;;17.30;99.90;;;;;;5107658;28;20504;-75
2023/07/16 03:10:08;;;;;;;86.45;83.15;;;17.20;99.90;;;;;;5108139;28;20057;-75
2023/07/16 03:12:34;;;;;;;77.32;74.13;;;17.40;99.90;;;;;;5108080;28;20032;-75
2023/07/16 03:15:00;;;;;;;81.28;78.13;;;17.30;99.90;;;;;;5108313;28;20393;-75
2023/07/16 03:17:25;;;;;;;81.43;78.00;;;17.20;99.90;;;;;;5091350;28;20035;-75
2023/07/16 03:19:51;;;;;;;78.78;75.85;;;17.20;99.90;;;;;;5090327;28;20050;-75
2023/07/16 03:22:17;;;;;;;92.97;89.45;;;17.10;99.90;;;;;;5090461;28;20031;-75
2023/07/16 03:24:42;;;;;;;139.98;134.75;;;17.40;99.90;;;;;;5105661;28;20126;-75
2023/07/16 03:27:08;;;;;;;108.82;104.65;;;17.30;99.90;;;;;;5105560;28;20088;-75
2023/07/16 03:29:34;;;;;;;91.00;87.18;;;17.50;99.90;;;;;;5106420;28;20791;-75
2023/07/16 03:32:00;;;;;;;97.35;93.10;;;17.60;99.90;;;;;;5106025;28;20059;-74
2023/07/16 03:34:26;;;;;;;86.60;83.22;;;17.70;99.90;;;;;;5103614;27;20371;-75
2023/07/16 03:36:51;;;;;;;92.88;89.25;;;17.60;99.90;;;;;;5098712;28;20117;-75
2023/07/16 03:39:17;;;;;;;102.25;98.25;;;17.80;99.90;;;;;;5102383;28;20035;-75
2023/07/16 03:41:43;;;;;;;90.18;86.53;;;17.70;99.90;;;;;;5086794;28;20020;-75
2023/07/16 03:44:09;;;;;;;88.25;84.78;;;17.70;99.90;;;;;;5105648;28;20081;-74
2023/07/16 03:46:34;;;;;;;82.63;79.50;;;17.70;99.90;;;;;;5105536;28;20024;-75
2023/07/16 03:49:00;;;;;;;85.70;82.30;;;17.80;99.90;;;;;;5104865;27;20111;-75
2023/07/16 03:51:26;;;;;;;79.38;76.28;;;17.70;99.90;;;;;;5108514;28;20063;-74
2023/07/16 03:53:51;;;;;;;75.15;72.30;;;17.80;99.90;;;;;;5108221;28;20023;-74
2023/07/16 03:56:17;;;;;;;71.10;68.28;;;17.50;99.90;;;;;;5090320;28;20027;-75
2023/07/16 03:58:43;;;;;;;76.68;73.75;;;17.70;99.90;;;;;;5106964;28;20027;-75
2023/07/16 04:01:09;;;;;;;78.00;74.95;;;17.60;99.90;;;;;;5106643;28;20105;-75
2023/07/16 04:03:35;;;;;;;73.93;71.03;;;17.40;99.90;;;;;;5101922;28;20036;-75
2023/07/16 04:06:03;;;;;;;66.88;64.22;;;17.30;99.90;;;;;;5107224;27;20050;-75
2023/07/16 04:08:28;;;;;;;69.43;66.63;;;17.10;99.90;;;;;;5102779;28;20039;-74
2023/07/16 04:10:54;;;;;;;72.72;69.95;;;17.20;99.90;;;;;;5106942;28;20034;-74
2023/07/16 04:13:19;;;;;;;76.30;73.32;;;16.90;99.90;;;;;;5106086;28;20032;-75
2023/07/16 04:15:45;;;;;;;56.75;54.25;;;16.90;99.90;;;;;;5088352;28;20381;-75
2023/07/16 04:18:11;;;;;;;72.78;70.05;;;16.80;99.90;;;;;;5107305;28;20060;-75
2023/07/16 04:20:36;;;;;;;60.15;57.83;;;16.80;99.90;;;;;;5107552;28;20441;-74
2023/07/16 04:23:02;;;;;;;79.53;76.28;;;16.80;99.90;;;;;;5103716;28;20173;-75
2023/07/16 04:25:27;;;;;;;76.88;73.47;;;16.80;99.90;;;;;;5103569;28;20032;-75
2023/07/16 04:27:53;;;;;;;67.20;64.43;;;16.80;99.90;;;;;;5102797;28;20505;-75
2023/07/16 04:30:19;;;;;;;56.28;53.97;;;16.60;99.90;;;;;;5108548;28;20062;-74
2023/07/16 04:32:44;;;;;;;49.88;47.65;;;16.40;99.90;;;;;;5108230;28;20127;-75
2023/07/16 04:35:10;;;;;;;66.00;63.47;;;16.50;99.90;;;;;;5107949;28;20322;-75
2023/07/16 04:37:36;;;;;;;58.42;55.88;;;16.30;99.90;;;;;;5101955;28;20056;-75
2023/07/16 04:40:01;;;;;;;66.68;64.13;;;16.50;99.90;;;;;;5106043;28;20781;-75
2023/07/16 04:42:27;;;;;;;57.25;54.90;;;16.50;99.90;;;;;;5106490;28;20059;-75
2023/07/16 04:44:53;;;;;;;51.35;49.22;;;16.30;99.90;;;;;;5104377;28;20046;-75
2023/07/16 04:47:18;;;;;;;50.55;48.28;;;16.40;99.90;;;;;;5106258;28;20397;-75
2023/07/16 04:49:44;;;;;;;49.97;47.80;;;16.40;99.90;;;;;;5104714;28;20032;-75
2023/07/16 04:52:10;;;;;;;62.78;60.33;;;16.30;99.90;;;;;;5088301;28;20028;-75
2023/07/16 04:54:37;;;;;;;56.03;53.78;;;16.40;99.90;;;;;;5106418;28;20032;-75
2023/07/16 04:57:04;;;;;;;56.47;54.20;;;16.40;99.90;;;;;;5083904;28;20032;-75
2023/07/16 04:59:29;;;;;;;53.53;51.35;;;16.40;99.90;;;;;;5105652;28;20020;-75
2023/07/16 05:01:55;;;;;;;56.63;54.40;;;16.20;99.90;;;;;;5104818;28;20027;-75
2023/07/16 05:04:21;;;;;;;58.03;55.47;;;16.30;99.90;;;;;;5102497;28;20039;-75
2023/07/16 05:06:46;;;;;;;53.70;51.38;;;16.30;99.90;;;;;;5102748;28;20114;-75
2023/07/16 05:09:12;;;;;;;58.97;56.67;;;16.30;99.90;;;;;;5103401;28;20060;-75
2023/07/16 05:11:38;;;;;;;49.20;47.25;;;16.40;99.90;;;;;;5106591;28;20036;-76
2023/07/16 05:14:04;;;;;;;49.65;47.50;;;16.30;99.90;;;;;;5107562;28;20070;-75
2023/07/16 05:16:29;;;;;;;46.25;44.22;;;16.40;99.90;;;;;;5107277;28;20028;-75
2023/07/16 05:18:55;;;;;;;59.35;56.85;;;16.30;99.90;;;;;;5107257;28;20568;-75
2023/07/16 05:21:21;;;;;;;56.30;54.05;;;16.30;99.90;;;;;;5106866;28;20532;-75
2023/07/16 05:23:46;;;;;;;54.22;51.97;;;16.30;99.90;;;;;;5105754;28;20394;-75
2023/07/16 05:26:12;;;;;;;48.83;46.83;;;16.40;99.90;;;;;;5085890;28;20043;-76
2023/07/16 05:28:38;;;;;;;55.72;53.33;;;16.40;99.90;;;;;;5108601;28;20039;-74
2023/07/16 05:31:03;;;;;;;53.40;51.15;;;16.40;99.90;;;;;;5110723;28;20032;-74
2023/07/16 05:33:29;;;;;;;51.35;49.28;;;16.60;99.90;;;;;;5091349;28;20028;-75
2023/07/16 05:35:55;;;;;;;50.15;48.17;;;16.60;99.90;;;;;;5111702;28;20039;-75
2023/07/16 05:38:21;;;;;;;49.90;47.55;;;16.70;99.90;;;;;;5107013;28;20509;-75
2023/07/16 05:40:47;;;;;;;65.25;62.53;;;16.70;99.90;;;;;;5105319;28;20059;-75
2023/07/16 05:43:14;;;;;;;49.67;47.47;;;16.70;99.90;;;;;;5088449;28;20067;-77
2023/07/16 05:45:39;;;;;;;49.08;46.65;;;16.60;99.90;;;;;;5108722;27;20051;-74
2023/07/16 05:48:05;;;;;;;42.20;40.30;;;16.50;99.90;;;;;;5107796;27;20023;-76
2023/07/16 05:50:31;;;;;;;25.55;24.33;;;16.30;99.90;;;;;;5106317;28;20081;-75
2023/07/16 05:52:56;;;;;;;69.47;66.72;;;16.30;99.90;;;;;;5110423;28;20104;-77
2023/07/16 05:55:22;;;;;;;55.75;49.95;;;16.20;99.90;;;;;;5108274;28;20107;-75
2023/07/16 05:57:48;;;;;;;43.15;41.35;;;16.00;99.10;;;;;;5110842;27;20039;-75
2023/07/16 06:00:14;;;;;;;43.08;41.38;;;16.00;99.90;;;;;;5108611;28;20084;-74
2023/07/16 06:02:40;;;;;;;33.67;32.30;;;15.90;99.90;;;;;;5105823;28;20084;-75
2023/07/16 06:05:06;;;;;;;28.67;27.50;;;15.90;99.90;;;;;;5085762;28;20047;-75
2023/07/16 06:07:32;;;;;;;26.27;25.08;;;15.90;99.90;;;;;;5104246;28;20031;-75
2023/07/16 06:09:58;;;;;;;35.30;33.88;;;15.80;99.90;;;;;;5106087;28;20043;-74
2023/07/16 06:12:24;;;;;;;45.55;43.75;;;16.00;99.90;;;;;;5108100;28;20044;-75
2023/07/16 06:14:49;;;;;;;22.70;21.60;;;16.00;99.90;;;;;;5108922;27;20028;-74
2023/07/16 06:17:15;;;;;;;18.75;17.90;;;16.20;98.20;;;;;;5106214;28;20024;-74
2023/07/16 06:19:41;;;;;;;36.95;35.47;;;16.20;98.20;;;;;;5106346;28;20043;-75
2023/07/16 06:22:08;;;;;;;26.23;24.85;;;16.40;99.30;;;;;;5088399;28;20036;-73
2023/07/16 06:24:34;;;;;;;25.38;24.17;;;16.50;97.30;;;;;;5105590;28;20040;-73
2023/07/16 06:27:00;;;;;;;20.02;19.15;;;16.90;98.00;;;;;;5107235;28;20508;-74
2023/07/16 06:29:25;;;;;;;17.13;16.33;;;17.30;97.70;;;;;;5104530;27;20037;-73
2023/07/16 06:31:56;;;;;;;17.48;16.70;;;17.50;94.80;;;;;;5107832;27;20036;-73
2023/07/16 06:34:22;;;;;;;19.50;18.50;;;17.50;94.40;;;;;;5099231;28;20029;-73
2023/07/16 06:36:48;;;;;;;17.25;16.33;;;17.50;95.30;;;;;;5105267;28;20044;-73
2023/07/16 06:39:13;;;;;;;21.27;20.17;;;17.40;94.10;;;;;;5104807;28;20024;-73
2023/07/16 06:41:39;;;;;;;21.67;20.05;;;17.50;92.30;;;;;;5103558;28;20032;-73
2023/07/16 06:44:05;;;;;;;16.55;15.80;;;17.50;90.70;;;;;;5109982;28;20149;-73
2023/07/16 06:46:30;;;;;;;17.45;16.60;;;17.70;90.90;;;;;;5104077;28;20055;-73
2023/07/16 06:48:56;;;;;;;14.18;13.35;;;17.70;90.50;;;;;;5104549;28;20081;-73
2023/07/16 06:51:22;;;;;;;13.50;12.80;;;17.70;88.00;;;;;;5102544;28;20073;-73
2023/07/16 06:53:47;;;;;;;15.18;14.35;;;17.60;86.80;;;;;;5088146;28;20071;-73
2023/07/16 06:56:13;;;;;;;13.77;12.88;;;17.70;87.20;;;;;;5089801;28;20052;-72
2023/07/16 06:58:38;;;;;;;16.95;15.85;;;17.70;87.30;;;;;;5105733;28;20102;-74
2023/07/16 07:01:04;;;;;;;21.33;20.30;;;17.90;89.00;;;;;;5088892;28;20096;-73
2023/07/16 07:03:30;;;;;;;14.18;13.38;;;17.90;89.30;;;;;;5100791;28;20107;-72
2023/07/16 07:05:56;;;;;;;14.18;13.30;;;18.10;86.30;;;;;;5105468;28;20028;-72
2023/07/16 07:08:21;;;;;;;16.98;15.80;;;18.40;84.40;;;;;;5090175;28;20382;-73
2023/07/16 07:10:49;;;;;;;13.85;13.05;;;18.40;84.80;;;;;;5103252;28;20084;-73
2023/07/16 07:13:14;;;;;;;17.10;16.30;;;18.60;81.50;;;;;;5094888;28;20428;-73
2023/07/16 07:15:42;;;;;;;13.90;13.00;;;18.90;81.10;;;;;;5104783;28;20141;-73
2023/07/16 07:18:07;;;;;;;15.60;14.90;;;18.90;78.70;;;;;;5106243;28;20532;-72
2023/07/16 07:20:33;;;;;;;13.00;12.20;;;18.70;80.10;;;;;;5106385;28;20035;-73
2023/07/16 07:23:02;;;;;;;13.80;13.00;;;18.30;78.50;;;;;;5087485;28;20040;-76
2023/07/16 07:25:28;;;;;;;16.65;15.85;;;18.30;80.40;;;;;;5090524;28;20046;-74
2023/07/16 07:27:53;;;;;;;14.40;13.60;;;18.30;81.10;;;;;;5108385;27;20035;-73
2023/07/16 07:30:19;;;;;;;14.40;13.60;;;18.20;80.50;;;;;;5088168;28;20028;-74
2023/07/16 07:32:45;;;;;;;13.80;13.00;;;18.20;80.10;;;;;;5089299;28;20389;-74
2023/07/16 07:35:10;;;;;;;12.63;12.02;;;18.10;80.60;;;;;;5087730;28;20029;-74
2023/07/16 07:37:36;;;;;;;13.48;12.57;;;18.20;79.10;;;;;;5107643;28;20052;-74
2023/07/16 07:40:03;;;;;;;13.10;12.50;;;18.20;76.80;;;;;;5103870;28;20093;-74
2023/07/16 07:42:29;;;;;;;14.60;13.90;;;18.10;78.30;;;;;;5088956;28;20054;-74
2023/07/16 07:44:55;;;;;;;14.88;14.15;;;18.30;76.80;;;;;;5108317;28;20070;-73
2023/07/16 07:47:21;;;;;;;14.57;13.77;;;18.50;75.50;;;;;;5106053;28;20023;-73
2023/07/16 07:49:46;;;;;;;16.85;16.05;;;18.60;76.10;;;;;;5109871;28;20052;-73
2023/07/16 07:52:12;;;;;;;16.35;15.63;;;19.40;77.80;;;;;;5109553;28;20040;-72
2023/07/16 07:54:38;;;;;;;16.92;16.13;;;19.50;73.30;;;;;;5113625;28;20044;-71
2023/07/16 07:57:04;;;;;;;14.73;14.02;;;18.90;73.30;;;;;;5110901;28;20036;-72
2023/07/16 07:59:30;;;;;;;14.82;14.13;;;19.10;73.80;;;;;;5115159;28;20016;-72
2023/07/16 08:01:58;;;;;;;15.85;15.05;;;19.00;73.10;;;;;;5107158;28;20108;-72
2023/07/16 08:04:24;;;;;;;14.52;13.73;;;19.50;73.90;;;;;;5104624;28;20118;-72
2023/07/16 08:06:50;;;;;;;14.45;13.35;;;20.20;75.00;;;;;;5104887;28;20072;-72
2023/07/16 08:09:16;;;;;;;14.75;14.05;;;20.30;72.80;;;;;;5104502;28;20136;-72
2023/07/16 08:11:43;;;;;;;14.38;13.57;;;20.20;70.80;;;;;;5106566;28;20650;-72
2023/07/16 08:14:09;;;;;;;15.15;14.45;;;20.30;72.50;;;;;;5104926;28;20039;-73
2023/07/16 08:16:35;;;;;;;14.48;13.77;;;20.30;69.50;;;;;;5106086;28;20028;-73
2023/07/16 08:19:00;;;;;;;13.65;12.85;;;20.60;68.60;;;;;;5103840;28;20047;-73
2023/07/16 08:21:26;;;;;;;13.57;12.68;;;20.10;69.00;;;;;;5102964;28;20043;-73
2023/07/16 08:23:52;;;;;;;14.55;13.57;;;20.00;74.90;;;;;;5104996;28;20059;-73
2023/07/16 08:26:18;;;;;;;15.27;14.57;;;20.20;68.90;;;;;;5105837;28;20420;-72
2023/07/16 08:28:44;;;;;;;14.20;13.40;;;20.60;69.00;;;;;;5107145;28;20394;-73
2023/07/16 08:31:11;;;;;;;13.25;12.45;;;21.20;69.00;;;;;;5105735;28;20441;-73
2023/07/16 08:33:37;;;;;;;12.57;11.95;;;20.70;64.40;;;;;;5108990;28;20032;-73
2023/07/16 08:36:03;;;;;;;14.02;13.27;;;20.40;65.70;;;;;;5107488;28;20461;-74
2023/07/16 08:38:29;;;;;;;14.02;13.23;;;20.50;65.20;;;;;;5102521;28;20036;-73
2023/07/16 08:40:54;;;;;;;14.57;13.88;;;20.40;70.30;;;;;;5104971;28;20038;-73
2023/07/16 08:43:21;;;;;;;15.18;14.38;;;20.90;68.10;;;;;;5090525;28;20040;-74
2023/07/16 08:45:49;;;;;;;12.73;12.02;;;20.60;66.00;;;;;;5105769;28;20382;-74
2023/07/16 08:48:19;;;;;;;13.23;12.45;;;20.70;68.20;;;;;;5105438;28;20115;-74
2023/07/16 08:50:48;;;;;;;15.02;14.23;;;20.80;63.80;;;;;;5088619;28;20036;-74
2023/07/16 08:53:16;;;;;;;13.95;13.25;;;21.10;65.40;;;;;;5102182;28;20041;-74
2023/07/16 08:55:44;;;;;;;12.25;11.57;;;21.20;62.70;;;;;;5087287;28;20028;-74
2023/07/16 08:58:11;;;;;;;16.48;15.68;;;21.10;62.10;;;;;;5088787;28;20118;-74
2023/07/16 09:00:38;;;;;;;29.23;26.73;;;21.30;64.30;;;;;;5105377;28;20505;-74
2023/07/16 09:03:04;;;;;;;14.77;14.00;;;21.30;63.20;;;;;;5106260;28;20053;-74
2023/07/16 09:05:30;;;;;;;17.23;16.33;;;21.70;61.60;;;;;;5088358;28;20535;-74
2023/07/16 09:07:55;;;;;;;12.07;11.48;;;21.80;61.10;;;;;;5109000;28;20069;-74
2023/07/16 09:10:21;;;;;;;12.68;12.07;;;21.70;58.30;;;;;;5111943;28;20031;-74
2023/07/16 09:12:47;;;;;;;11.75;11.15;;;21.90;60.10;;;;;;5107763;28;20038;-74
2023/07/16 09:15:17;;;;;;;14.90;10.68;;;22.10;56.70;;;;;;5109486;27;20055;-74
2023/07/16 09:17:46;;;;;;;13.40;12.70;;;22.40;56.50;;;;;;5108765;28;20026;-74
2023/07/16 09:20:14;;;;;;;13.23;12.52;;;22.40;60.10;;;;;;5088395;28;20046;-75
2023/07/16 09:22:40;;;;;;;13.40;12.77;;;22.20;62.20;;;;;;5109305;28;20051;-74
2023/07/16 09:25:05;;;;;;;12.65;11.95;;;22.30;58.30;;;;;;5092626;27;20063;-73
2023/07/16 09:27:31;;;;;;;12.23;11.50;;;22.70;55.50;;;;;;5075415;28;20028;-73
2023/07/16 09:29:59;;;;;;;13.32;12.63;;;23.20;54.20;;;;;;5111549;27;20085;-73
2023/07/16 09:32:39;;;;;;;12.43;11.73;;;23.50;53.80;;;;;;5108743;28;20126;-77
2023/07/16 09:35:11;;;;;;;13.32;12.65;;;23.60;51.90;;;;;;5104542;28;20069;-77
2023/07/16 09:37:38;;;;;;;13.20;12.48;;;23.80;49.70;;;;;;5089126;28;20146;-77
2023/07/16 09:40:09;;;;;;;13.30;12.63;;;23.70;51.30;;;;;;5108315;27;20058;-78
2023/07/16 09:42:41;;;;;;;13.82;13.02;;;23.80;51.20;;;;;;5086294;28;20498;-78
2023/07/16 09:45:09;;;;;;;13.13;12.43;;;23.90;50.00;;;;;;5105818;28;20224;-77
2023/07/16 09:47:35;;;;;;;13.95;13.25;;;23.90;52.10;;;;;;5105985;27;20074;-77
2023/07/16 09:50:02;;;;;;;14.48;13.77;;;24.00;51.20;;;;;;5109870;27;20089;-77
2023/07/16 09:52:28;;;;;;;13.60;12.80;;;23.60;52.20;;;;;;5106550;28;20029;-78
2023/07/16 09:54:56;;;;;;;13.25;12.55;;;23.40;53.10;;;;;;5105926;28;20374;-77
2023/07/16 09:57:25;;;;;;;14.38;13.48;;;23.30;51.60;;;;;;5107910;28;20060;-78
2023/07/16 09:59:52;;;;;;;15.55;14.75;;;23.70;52.20;;;;;;5091522;28;20028;-78
2023/07/16 10:02:18;;;;;;;14.07;13.18;;;23.00;50.10;;;;;;5109591;27;20042;-77
2023/07/16 10:04:44;;;;;;;15.00;14.27;;;23.20;52.20;;;;;;5105520;28;20085;-78
2023/07/16 10:07:21;;;;;;;13.02;12.25;;;22.90;50.90;;;;;;5104858;28;20077;-78
2023/07/16 10:09:57;;;;;;;13.93;13.23;;;23.10;52.10;;;;;;5090393;28;20036;-78
2023/07/16 10:12:25;;;;;;;13.18;12.48;;;23.10;51.60;;;;;;5088444;28;20020;-78
2023/07/16 10:14:52;;;;;;;13.10;12.40;;;23.20;51.50;;;;;;5107578;28;20111;-78
2023/07/16 10:17:25;;;;;;;14.10;13.50;;;23.60;51.80;;;;;;5105425;27;20017;-78
2023/07/16 10:20:07;;;;;;;13.45;12.45;;;24.10;48.80;;;;;;5085101;28;20039;-78
2023/07/16 10:22:41;;;;;;;15.88;15.07;;;24.00;48.50;;;;;;5102416;28;20024;-78
2023/07/16 10:25:19;;;;;;;16.48;15.68;;;24.60;48.70;;;;;;5089278;28;20032;-77
2023/07/16 10:27:49;;;;;;;16.70;15.88;;;24.50;47.50;;;;;;5106813;27;20023;-77
2023/07/16 10:30:15;;;;;;;13.93;13.23;;;24.70;46.80;;;;;;5105450;28;20242;-75
2023/07/16 10:32:41;;;;;;;16.30;15.57;;;24.20;51.10;;;;;;5089482;28;20035;-76
2023/07/16 10:35:11;;;;;;;15.85;15.15;;;24.50;48.10;;;;;;5086006;28;20400;-76
2023/07/16 10:37:38;;;;;;;16.45;15.55;;;24.90;46.90;;;;;;5083140;28;20053;-76
2023/07/16 10:40:06;;;;;;;14.73;13.93;;;25.00;47.20;;;;;;5069552;28;20032;-76
2023/07/16 10:42:32;;;;;;;16.40;15.60;;;24.70;46.90;;;;;;5077917;28;20024;-78
2023/07/16 10:45:03;;;;;;;16.58;15.77;;;24.80;48.20;;;;;;5088203;28;20334;-78
2023/07/16 10:47:34;;;;;;;15.68;14.57;;;24.80;48.00;;;;;;5104731;28;20038;-77
2023/07/16 10:50:02;;;;;;;15.75;15.05;;;24.60;49.10;;;;;;5105175;28;20039;-77
2023/07/16 10:52:29;;;;;;;16.67;15.77;;;25.20;47.10;;;;;;5103742;28;20028;-77
2023/07/16 10:54:54;;;;;;;14.25;13.55;;;24.90;45.70;;;;;;5085143;28;20024;-77
2023/07/16 10:57:21;;;;;;;13.65;12.95;;;25.40;50.70;;;;;;5107189;28;20023;-77
2023/07/16 10:59:49;;;;;;;17.10;16.20;;;25.80;45.70;;;;;;5101216;28;20039;-77
2023/07/16 11:02:16;;;;;;;18.85;17.95;;;25.90;46.20;;;;;;5109747;27;20893;-77
2023/07/16 11:04:43;;;;;;;23.83;22.75;;;25.50;45.00;;;;;;5083990;28;20036;-77
2023/07/16 11:07:13;;;;;;;23.38;22.38;;;25.10;45.00;;;;;;5087930;28;20028;-77
2023/07/16 11:09:48;;;;;;;21.55;20.60;;;24.50;45.70;;;;;;5104168;28;20063;-76
2023/07/16 11:12:16;;;;;;;18.77;17.88;;;24.30;48.00;;;;;;5105568;28;20040;-77
2023/07/16 11:14:55;;;;;;;18.92;18.05;;;24.20;48.20;;;;;;5091358;28;20023;-76
2023/07/16 11:17:23;;;;;;;25.93;24.63;;;25.00;46.10;;;;;;5103130;28;20028;-77
2023/07/16 11:19:51;;;;;;;24.35;23.25;;;25.30;44.60;;;;;;5083417;28;20035;-76
2023/07/16 11:22:18;;;;;;;27.65;26.50;;;25.80;45.60;;;;;;5103562;27;20032;-76
2023/07/16 11:24:46;;;;;;;29.25;28.05;;;25.40;44.90;;;;;;5104468;28;20047;-75
2023/07/16 11:27:31;;;;;;;32.15;30.65;;;25.00;45.10;;;;;;5083029;28;20035;-76
2023/07/16 11:29:59;;;;;;;31.85;30.55;;;24.60;46.50;;;;;;5084366;28;20043;-76
2023/07/16 11:32:33;;;;;;;31.80;30.48;;;25.00;46.40;;;;;;5106336;27;20024;-76
2023/07/16 11:35:05;;;;;;;26.25;25.15;;;25.60;44.70;;;;;;5105892;28;20035;-76
2023/07/16 11:37:32;;;;;;;25.23;24.13;;;25.70;45.40;;;;;;5086159;28;20498;-76
2023/07/16 11:40:03;;;;;;;20.67;19.77;;;24.90;47.00;;;;;;5088672;28;20035;-76
2023/07/16 11:42:33;;;;;;;20.20;19.20;;;25.00;45.90;;;;;;5085269;28;20618;-77
2023/07/16 11:44:59;;;;;;;20.77;19.88;;;25.00;47.00;;;;;;5101887;28;20474;-76
2023/07/16 11:47:26;;;;;;;22.58;21.58;;;24.80;48.10;;;;;;5102273;27;20039;-78
2023/07/16 11:49:52;;;;;;;22.35;21.35;;;24.20;47.90;;;;;;5105267;28;20077;-77
2023/07/16 11:52:24;;;;;;;15.43;14.73;;;24.20;49.10;;;;;;5105163;28;20032;-77
2023/07/16 11:54:49;;;;;;;15.02;14.25;;;23.70;51.00;;;;;;5089494;28;20032;-77
2023/07/16 11:57:16;;;;;;;15.15;14.15;;;23.90;50.00;;;;;;5069175;28;20093;-77
2023/07/16 11:59:42;;;;;;;15.68;14.88;;;23.90;49.80;;;;;;5114581;28;20020;-77
2023/07/16 12:02:08;;;;;;;14.45;13.65;;;24.20;49.20;;;;;;5114060;28;20035;-77
2023/07/16 12:04:33;;;;;;;14.85;14.15;;;24.00;49.00;;;;;;5076205;28;20031;-77
2023/07/16 12:06:59;;;;;;;14.95;14.07;;;24.30;49.50;;;;;;5106840;28;20027;-78
2023/07/16 12:09:25;;;;;;;13.40;12.73;;;24.60;47.60;;;;;;5103903;28;20032;-77
2023/07/16 12:11:50;;;;;;;14.13;13.43;;;24.60;51.20;;;;;;5087828;28;20505;-78
2023/07/16 12:14:16;;;;;;;15.07;14.35;;;24.50;50.00;;;;;;5105098;28;20067;-77
2023/07/16 12:16:42;;;;;;;21.65;20.65;;;25.00;47.40;;;;;;5107737;28;20040;-78
2023/07/16 12:19:09;;;;;;;15.18;14.35;;;24.70;47.50;;;;;;5087725;28;20474;-77
2023/07/16 12:21:35;;;;;;;13.90;13.07;;;24.50;50.60;;;;;;5105119;28;20035;-77